sensor_id;sensor_type;location;lat;lon;timestamp;P1;durP1;ratioP1;P2;durP2;ratioP2
47659;SDS011;33403;43.608;1.458;2023-06-19T00:01:19;20.73;;;11.00;;
47659;SDS011;33403;43.608;1.458;2023-06-19T00:03:44;17.75;;;11.20;;
47659;SDS011;33403;43.608;1.458;2023-06-19T00:06:10;17.58;;;11.15;;
47659;SDS011;33403;43.608;1.458;2023-06-19T00:08:37;19.05;;;11.10;;
47659;SDS011;33403;43.608;1.458;2023-06-19T00:11:06;20.52;;;11.13;;
47659;SDS011;33403;43.608;1.458;2023-06-19T00:13:32;18.77;;;10.95;;
47659;SDS011;33403;43.608;1.458;2023-06-19T00:15:58;16.35;;;11.07;;
47659;SDS011;33403;43.608;1.458;2023-06-19T00:18:25;14.57;;;10.70;;
47659;SDS011;33403;43.608;1.458;2023-06-19T00:20:51;17.35;;;10.40;;
47659;SDS011;33403;43.608;1.458;2023-06-19T00:23:19;17.73;;;10.50;;
47659;SDS011;33403;43.608;1.458;2023-06-19T00:25:45;16.30;;;9.88;;
47659;SDS011;33403;43.608;1.458;2023-06-19T00:28:10;15.30;;;10.00;;
47659;SDS011;33403;43.608;1.458;2023-06-19T00:30:39;16.63;;;9.82;;
47659;SDS011;33403;43.608;1.458;2023-06-19T00:33:06;15.43;;;9.60;;
47659;SDS011;33403;43.608;1.458;2023-06-19T00:35:32;17.25;;;9.57;;
47659;SDS011;33403;43.608;1.458;2023-06-19T00:37:58;14.18;;;9.95;;
47659;SDS011;33403;43.608;1.458;2023-06-19T00:40:28;15.05;;;9.27;;
47659;SDS011;33403;43.608;1.458;2023-06-19T00:42:55;16.95;;;9.73;;
47659;SDS011;33403;43.608;1.458;2023-06-19T00:45:21;16.05;;;9.68;;
47659;SDS011;33403;43.608;1.458;2023-06-19T00:47:46;17.00;;;9.50;;
47659;SDS011;33403;43.608;1.458;2023-06-19T00:50:12;14.93;;;9.60;;
47659;SDS011;33403;43.608;1.458;2023-06-19T00:52:38;13.95;;;9.55;;
47659;SDS011;33403;43.608;1.458;2023-06-19T00:55:05;16.92;;;9.82;;
47659;SDS011;33403;43.608;1.458;2023-06-19T00:57:32;17.83;;;9.93;;
47659;SDS011;33403;43.608;1.458;2023-06-19T00:59:58;14.55;;;9.70;;
47659;SDS011;33403;43.608;1.458;2023-06-19T01:02:25;16.90;;;9.48;;
47659;SDS011;33403;43.608;1.458;2023-06-19T01:04:51;14.88;;;9.48;;
47659;SDS011;33403;43.608;1.458;2023-06-19T01:07:19;19.00;;;10.13;;
47659;SDS011;33403;43.608;1.458;2023-06-19T01:09:55;15.43;;;9.77;;
47659;SDS011;33403;43.608;1.458;2023-06-19T01:12:30;18.48;;;10.20;;
47659;SDS011;33403;43.608;1.458;2023-06-19T01:15:03;12.73;;;9.40;;
47659;SDS011;33403;43.608;1.458;2023-06-19T01:17:30;14.98;;;9.90;;
47659;SDS011;33403;43.608;1.458;2023-06-19T01:19:56;14.80;;;10.18;;
47659;SDS011;33403;43.608;1.458;2023-06-19T01:22:24;17.77;;;10.00;;
47659;SDS011;33403;43.608;1.458;2023-06-19T01:24:52;14.43;;;9.93;;
47659;SDS011;33403;43.608;1.458;2023-06-19T01:27:18;14.80;;;10.07;;
47659;SDS011;33403;43.608;1.458;2023-06-19T01:29:44;15.65;;;9.98;;
47659;SDS011;33403;43.608;1.458;2023-06-19T01:32:10;17.10;;;9.45;;
47659;SDS011;33403;43.608;1.458;2023-06-19T01:34:41;13.02;;;9.77;;
47659;SDS011;33403;43.608;1.458;2023-06-19T01:37:07;16.33;;;9.93;;
47659;SDS011;33403;43.608;1.458;2023-06-19T01:39:35;15.65;;;9.93;;
47659;SDS011;33403;43.608;1.458;2023-06-19T01:42:02;14.45;;;9.52;;
47659;SDS011;33403;43.608;1.458;2023-06-19T01:44:29;12.75;;;9.63;;
47659;SDS011;33403;43.608;1.458;2023-06-19T01:46:55;17.65;;;9.52;;
47659;SDS011;33403;43.608;1.458;2023-06-19T01:49:21;15.70;;;9.73;;
47659;SDS011;33403;43.608;1.458;2023-06-19T01:51:46;14.05;;;9.30;;
47659;SDS011;33403;43.608;1.458;2023-06-19T01:54:12;18.67;;;10.25;;
47659;SDS011;33403;43.608;1.458;2023-06-19T01:56:38;13.05;;;9.18;;
47659;SDS011;33403;43.608;1.458;2023-06-19T01:59:04;14.65;;;9.98;;
47659;SDS011;33403;43.608;1.458;2023-06-19T02:01:29;20.90;;;10.15;;
47659;SDS011;33403;43.608;1.458;2023-06-19T02:03:55;22.00;;;10.20;;
47659;SDS011;33403;43.608;1.458;2023-06-19T02:06:20;15.98;;;9.77;;
47659;SDS011;33403;43.608;1.458;2023-06-19T02:08:49;14.77;;;9.73;;
47659;SDS011;33403;43.608;1.458;2023-06-19T02:11:15;15.48;;;9.73;;
47659;SDS011;33403;43.608;1.458;2023-06-19T02:13:41;17.40;;;9.63;;
47659;SDS011;33403;43.608;1.458;2023-06-19T02:16:07;14.95;;;9.27;;
47659;SDS011;33403;43.608;1.458;2023-06-19T02:18:32;13.38;;;9.13;;
47659;SDS011;33403;43.608;1.458;2023-06-19T02:20:58;12.27;;;9.15;;
47659;SDS011;33403;43.608;1.458;2023-06-19T02:23:24;14.55;;;9.23;;
47659;SDS011;33403;43.608;1.458;2023-06-19T02:25:49;16.95;;;9.90;;
47659;SDS011;33403;43.608;1.458;2023-06-19T02:28:15;13.90;;;9.35;;
47659;SDS011;33403;43.608;1.458;2023-06-19T02:30:41;14.15;;;9.50;;
47659;SDS011;33403;43.608;1.458;2023-06-19T02:33:06;13.15;;;9.05;;
47659;SDS011;33403;43.608;1.458;2023-06-19T02:35:32;13.50;;;9.15;;
47659;SDS011;33403;43.608;1.458;2023-06-19T02:37:58;14.13;;;9.20;;
47659;SDS011;33403;43.608;1.458;2023-06-19T02:40:23;15.63;;;9.18;;
47659;SDS011;33403;43.608;1.458;2023-06-19T02:42:49;13.65;;;8.95;;
47659;SDS011;33403;43.608;1.458;2023-06-19T02:45:15;13.50;;;9.30;;
47659;SDS011;33403;43.608;1.458;2023-06-19T02:47:41;13.80;;;8.93;;
47659;SDS011;33403;43.608;1.458;2023-06-19T02:50:07;13.82;;;9.38;;
47659;SDS011;33403;43.608;1.458;2023-06-19T02:52:33;13.05;;;9.27;;
47659;SDS011;33403;43.608;1.458;2023-06-19T02:54:58;12.20;;;9.77;;
47659;SDS011;33403;43.608;1.458;2023-06-19T02:57:24;13.48;;;8.85;;
47659;SDS011;33403;43.608;1.458;2023-06-19T02:59:50;16.75;;;9.40;;
47659;SDS011;33403;43.608;1.458;2023-06-19T03:02:15;12.68;;;10.00;;
47659;SDS011;33403;43.608;1.458;2023-06-19T03:04:41;14.15;;;9.85;;
47659;SDS011;33403;43.608;1.458;2023-06-19T03:07:07;14.70;;;10.00;;
47659;SDS011;33403;43.608;1.458;2023-06-19T03:09:33;13.82;;;9.70;;
47659;SDS011;33403;43.608;1.458;2023-06-19T03:11:59;12.18;;;9.40;;
47659;SDS011;33403;43.608;1.458;2023-06-19T03:14:24;15.20;;;9.90;;
47659;SDS011;33403;43.608;1.458;2023-06-19T03:16:50;15.30;;;10.23;;
47659;SDS011;33403;43.608;1.458;2023-06-19T03:19:15;14.77;;;10.32;;
47659;SDS011;33403;43.608;1.458;2023-06-19T03:21:41;18.48;;;10.35;;
47659;SDS011;33403;43.608;1.458;2023-06-19T03:24:07;17.25;;;10.07;;
47659;SDS011;33403;43.608;1.458;2023-06-19T03:26:32;18.08;;;9.98;;
47659;SDS011;33403;43.608;1.458;2023-06-19T03:28:58;14.20;;;9.85;;
47659;SDS011;33403;43.608;1.458;2023-06-19T03:31:24;12.70;;;10.18;;
47659;SDS011;33403;43.608;1.458;2023-06-19T03:33:50;14.15;;;10.13;;
47659;SDS011;33403;43.608;1.458;2023-06-19T03:36:15;18.25;;;9.98;;
47659;SDS011;33403;43.608;1.458;2023-06-19T03:38:41;14.73;;;9.52;;
47659;SDS011;33403;43.608;1.458;2023-06-19T03:41:07;16.15;;;10.13;;
47659;SDS011;33403;43.608;1.458;2023-06-19T03:43:33;16.38;;;9.70;;
47659;SDS011;33403;43.608;1.458;2023-06-19T03:45:58;12.63;;;9.50;;
47659;SDS011;33403;43.608;1.458;2023-06-19T03:48:24;14.10;;;10.05;;
47659;SDS011;33403;43.608;1.458;2023-06-19T03:50:49;15.05;;;10.20;;
47659;SDS011;33403;43.608;1.458;2023-06-19T03:53:15;13.68;;;9.82;;
47659;SDS011;33403;43.608;1.458;2023-06-19T03:55:41;18.27;;;10.43;;
47659;SDS011;33403;43.608;1.458;2023-06-19T03:58:06;17.40;;;9.88;;
47659;SDS011;33403;43.608;1.458;2023-06-19T04:00:32;14.45;;;9.73;;
47659;SDS011;33403;43.608;1.458;2023-06-19T04:02:58;14.98;;;10.77;;
47659;SDS011;33403;43.608;1.458;2023-06-19T04:05:23;13.30;;;10.00;;
47659;SDS011;33403;43.608;1.458;2023-06-19T04:07:49;15.60;;;10.75;;
47659;SDS011;33403;43.608;1.458;2023-06-19T04:10:15;16.23;;;10.68;;
47659;SDS011;33403;43.608;1.458;2023-06-19T04:12:41;16.58;;;10.27;;
47659;SDS011;33403;43.608;1.458;2023-06-19T04:15:07;14.85;;;10.25;;
47659;SDS011;33403;43.608;1.458;2023-06-19T04:17:33;15.45;;;10.40;;
47659;SDS011;33403;43.608;1.458;2023-06-19T04:19:59;16.58;;;10.60;;
47659;SDS011;33403;43.608;1.458;2023-06-19T04:22:24;14.43;;;10.50;;
47659;SDS011;33403;43.608;1.458;2023-06-19T04:24:50;13.60;;;10.85;;
47659;SDS011;33403;43.608;1.458;2023-06-19T04:27:16;15.13;;;10.02;;
47659;SDS011;33403;43.608;1.458;2023-06-19T04:29:41;15.05;;;10.10;;
47659;SDS011;33403;43.608;1.458;2023-06-19T04:32:07;16.95;;;10.70;;
47659;SDS011;33403;43.608;1.458;2023-06-19T04:34:40;13.52;;;9.98;;
47659;SDS011;33403;43.608;1.458;2023-06-19T04:37:10;15.20;;;10.63;;
47659;SDS011;33403;43.608;1.458;2023-06-19T04:39:36;13.70;;;10.23;;
47659;SDS011;33403;43.608;1.458;2023-06-19T04:42:02;15.95;;;10.20;;
47659;SDS011;33403;43.608;1.458;2023-06-19T04:44:28;16.88;;;10.75;;
47659;SDS011;33403;43.608;1.458;2023-06-19T04:46:58;11.88;;;9.93;;
47659;SDS011;33403;43.608;1.458;2023-06-19T04:49:30;15.20;;;10.70;;
47659;SDS011;33403;43.608;1.458;2023-06-19T04:51:56;14.57;;;10.35;;
47659;SDS011;33403;43.608;1.458;2023-06-19T04:54:22;17.08;;;10.70;;
47659;SDS011;33403;43.608;1.458;2023-06-19T04:56:48;13.55;;;10.20;;
47659;SDS011;33403;43.608;1.458;2023-06-19T04:59:13;14.55;;;10.45;;
47659;SDS011;33403;43.608;1.458;2023-06-19T05:01:43;15.15;;;10.35;;
47659;SDS011;33403;43.608;1.458;2023-06-19T05:04:09;15.15;;;10.15;;
47659;SDS011;33403;43.608;1.458;2023-06-19T05:06:36;12.73;;;10.18;;
47659;SDS011;33403;43.608;1.458;2023-06-19T05:09:02;13.80;;;9.90;;
47659;SDS011;33403;43.608;1.458;2023-06-19T05:11:28;12.77;;;9.90;;
47659;SDS011;33403;43.608;1.458;2023-06-19T05:13:53;16.23;;;10.40;;
47659;SDS011;33403;43.608;1.458;2023-06-19T05:16:19;14.90;;;10.23;;
47659;SDS011;33403;43.608;1.458;2023-06-19T05:18:45;15.32;;;10.52;;
47659;SDS011;33403;43.608;1.458;2023-06-19T05:21:10;14.73;;;10.77;;
47659;SDS011;33403;43.608;1.458;2023-06-19T05:23:36;12.75;;;10.35;;
47659;SDS011;33403;43.608;1.458;2023-06-19T05:26:05;15.68;;;10.40;;
47659;SDS011;33403;43.608;1.458;2023-06-19T05:28:31;13.05;;;10.30;;
47659;SDS011;33403;43.608;1.458;2023-06-19T05:30:57;16.00;;;10.68;;
47659;SDS011;33403;43.608;1.458;2023-06-19T05:33:23;15.55;;;10.43;;
47659;SDS011;33403;43.608;1.458;2023-06-19T05:35:49;15.23;;;10.05;;
47659;SDS011;33403;43.608;1.458;2023-06-19T05:38:19;14.48;;;9.95;;
47659;SDS011;33403;43.608;1.458;2023-06-19T05:40:45;12.90;;;10.45;;
47659;SDS011;33403;43.608;1.458;2023-06-19T05:43:11;13.80;;;10.48;;
47659;SDS011;33403;43.608;1.458;2023-06-19T05:45:37;17.95;;;10.52;;
47659;SDS011;33403;43.608;1.458;2023-06-19T05:48:03;14.27;;;10.32;;
47659;SDS011;33403;43.608;1.458;2023-06-19T05:50:29;13.98;;;10.02;;
47659;SDS011;33403;43.608;1.458;2023-06-19T05:52:55;13.10;;;9.93;;
47659;SDS011;33403;43.608;1.458;2023-06-19T05:55:21;14.35;;;10.18;;
47659;SDS011;33403;43.608;1.458;2023-06-19T05:57:47;12.65;;;10.00;;
47659;SDS011;33403;43.608;1.458;2023-06-19T06:00:13;11.45;;;9.60;;
47659;SDS011;33403;43.608;1.458;2023-06-19T06:02:40;12.50;;;9.95;;
47659;SDS011;33403;43.608;1.458;2023-06-19T06:05:06;16.73;;;10.02;;
47659;SDS011;33403;43.608;1.458;2023-06-19T06:07:33;13.32;;;10.25;;
47659;SDS011;33403;43.608;1.458;2023-06-19T06:09:59;15.15;;;10.20;;
47659;SDS011;33403;43.608;1.458;2023-06-19T06:12:25;13.50;;;9.93;;
47659;SDS011;33403;43.608;1.458;2023-06-19T06:14:50;15.50;;;9.85;;
47659;SDS011;33403;43.608;1.458;2023-06-19T06:17:16;18.45;;;9.68;;
47659;SDS011;33403;43.608;1.458;2023-06-19T06:19:42;14.38;;;10.27;;
47659;SDS011;33403;43.608;1.458;2023-06-19T06:22:07;14.63;;;10.32;;
47659;SDS011;33403;43.608;1.458;2023-06-19T06:24:33;13.43;;;10.05;;
47659;SDS011;33403;43.608;1.458;2023-06-19T06:26:58;12.90;;;9.75;;
47659;SDS011;33403;43.608;1.458;2023-06-19T06:29:24;16.85;;;9.75;;
47659;SDS011;33403;43.608;1.458;2023-06-19T06:31:50;14.00;;;9.65;;
47659;SDS011;33403;43.608;1.458;2023-06-19T06:34:17;14.50;;;10.00;;
47659;SDS011;33403;43.608;1.458;2023-06-19T06:36:44;13.10;;;9.95;;
47659;SDS011;33403;43.608;1.458;2023-06-19T06:39:10;12.68;;;9.27;;
47659;SDS011;33403;43.608;1.458;2023-06-19T06:41:36;13.18;;;9.68;;
47659;SDS011;33403;43.608;1.458;2023-06-19T06:44:01;11.38;;;9.27;;
47659;SDS011;33403;43.608;1.458;2023-06-19T06:46:27;14.63;;;9.85;;
47659;SDS011;33403;43.608;1.458;2023-06-19T06:48:53;14.35;;;9.75;;
47659;SDS011;33403;43.608;1.458;2023-06-19T06:51:19;13.15;;;10.07;;
47659;SDS011;33403;43.608;1.458;2023-06-19T06:53:44;12.35;;;9.82;;
47659;SDS011;33403;43.608;1.458;2023-06-19T06:56:10;16.95;;;10.25;;
47659;SDS011;33403;43.608;1.458;2023-06-19T06:58:36;12.93;;;10.15;;
47659;SDS011;33403;43.608;1.458;2023-06-19T07:01:01;14.27;;;9.52;;
47659;SDS011;33403;43.608;1.458;2023-06-19T07:03:27;11.82;;;9.40;;
47659;SDS011;33403;43.608;1.458;2023-06-19T07:05:56;16.63;;;9.55;;
47659;SDS011;33403;43.608;1.458;2023-06-19T07:08:22;14.13;;;10.20;;
47659;SDS011;33403;43.608;1.458;2023-06-19T07:10:48;13.13;;;9.55;;
47659;SDS011;33403;43.608;1.458;2023-06-19T07:13:14;13.30;;;10.27;;
47659;SDS011;33403;43.608;1.458;2023-06-19T07:15:40;11.68;;;9.45;;
47659;SDS011;33403;43.608;1.458;2023-06-19T07:18:05;14.73;;;10.13;;
47659;SDS011;33403;43.608;1.458;2023-06-19T07:20:31;13.48;;;10.15;;
47659;SDS011;33403;43.608;1.458;2023-06-19T07:22:57;14.30;;;11.20;;
47659;SDS011;33403;43.608;1.458;2023-06-19T07:25:23;14.05;;;11.05;;
47659;SDS011;33403;43.608;1.458;2023-06-19T07:27:50;16.15;;;11.50;;
47659;SDS011;33403;43.608;1.458;2023-06-19T07:30:16;18.90;;;12.05;;
47659;SDS011;33403;43.608;1.458;2023-06-19T07:32:42;13.73;;;11.80;;
47659;SDS011;33403;43.608;1.458;2023-06-19T07:35:07;16.58;;;12.23;;
47659;SDS011;33403;43.608;1.458;2023-06-19T07:37:33;19.35;;;13.07;;
47659;SDS011;33403;43.608;1.458;2023-06-19T07:39:59;15.90;;;11.27;;
47659;SDS011;33403;43.608;1.458;2023-06-19T07:42:25;18.10;;;12.38;;
47659;SDS011;33403;43.608;1.458;2023-06-19T07:44:51;21.92;;;13.90;;
47659;SDS011;33403;43.608;1.458;2023-06-19T07:47:17;18.05;;;13.57;;
47659;SDS011;33403;43.608;1.458;2023-06-19T07:49:43;19.63;;;13.77;;
47659;SDS011;33403;43.608;1.458;2023-06-19T07:52:10;19.70;;;13.82;;
47659;SDS011;33403;43.608;1.458;2023-06-19T07:54:35;16.88;;;13.73;;
47659;SDS011;33403;43.608;1.458;2023-06-19T07:57:01;19.60;;;14.70;;
47659;SDS011;33403;43.608;1.458;2023-06-19T07:59:27;15.93;;;13.00;;
47659;SDS011;33403;43.608;1.458;2023-06-19T08:01:53;20.55;;;13.80;;
47659;SDS011;33403;43.608;1.458;2023-06-19T08:04:18;17.30;;;12.80;;
47659;SDS011;33403;43.608;1.458;2023-06-19T08:06:44;19.65;;;13.32;;
47659;SDS011;33403;43.608;1.458;2023-06-19T08:09:09;17.98;;;13.73;;
47659;SDS011;33403;43.608;1.458;2023-06-19T08:11:35;15.23;;;12.77;;
47659;SDS011;33403;43.608;1.458;2023-06-19T08:14:02;14.82;;;11.32;;
47659;SDS011;33403;43.608;1.458;2023-06-19T08:16:28;18.50;;;13.52;;
47659;SDS011;33403;43.608;1.458;2023-06-19T08:18:53;18.33;;;12.73;;
47659;SDS011;33403;43.608;1.458;2023-06-19T08:21:19;14.05;;;11.82;;
47659;SDS011;33403;43.608;1.458;2023-06-19T08:23:46;12.98;;;11.05;;
47659;SDS011;33403;43.608;1.458;2023-06-19T08:26:12;15.57;;;12.18;;
47659;SDS011;33403;43.608;1.458;2023-06-19T08:28:38;17.02;;;12.95;;
47659;SDS011;33403;43.608;1.458;2023-06-19T08:31:06;15.80;;;11.90;;
47659;SDS011;33403;43.608;1.458;2023-06-19T08:33:33;18.50;;;12.57;;
47659;SDS011;33403;43.608;1.458;2023-06-19T08:36:00;17.95;;;12.10;;
47659;SDS011;33403;43.608;1.458;2023-06-19T08:38:25;16.60;;;11.40;;
47659;SDS011;33403;43.608;1.458;2023-06-19T08:40:51;14.05;;;11.02;;
47659;SDS011;33403;43.608;1.458;2023-06-19T08:43:17;14.93;;;11.25;;
47659;SDS011;33403;43.608;1.458;2023-06-19T08:45:42;14.65;;;11.40;;
47659;SDS011;33403;43.608;1.458;2023-06-19T08:48:12;13.50;;;11.20;;
47659;SDS011;33403;43.608;1.458;2023-06-19T08:50:38;16.10;;;11.15;;
47659;SDS011;33403;43.608;1.458;2023-06-19T08:53:04;15.90;;;11.02;;
47659;SDS011;33403;43.608;1.458;2023-06-19T08:55:30;14.18;;;11.85;;
47659;SDS011;33403;43.608;1.458;2023-06-19T08:57:55;15.85;;;11.80;;
47659;SDS011;33403;43.608;1.458;2023-06-19T09:00:24;14.60;;;11.85;;
47659;SDS011;33403;43.608;1.458;2023-06-19T09:02:51;16.80;;;12.57;;
47659;SDS011;33403;43.608;1.458;2023-06-19T09:05:18;16.40;;;11.60;;
47659;SDS011;33403;43.608;1.458;2023-06-19T09:07:46;16.63;;;12.93;;
47659;SDS011;33403;43.608;1.458;2023-06-19T09:10:23;16.88;;;12.30;;
47659;SDS011;33403;43.608;1.458;2023-06-19T09:13:04;17.58;;;12.30;;
47659;SDS011;33403;43.608;1.458;2023-06-19T09:15:35;16.27;;;12.30;;
47659;SDS011;33403;43.608;1.458;2023-06-19T09:20:28;17.45;;;13.32;;
47659;SDS011;33403;43.608;1.458;2023-06-19T09:22:54;19.42;;;13.10;;
47659;SDS011;33403;43.608;1.458;2023-06-19T09:25:20;15.05;;;12.95;;
47659;SDS011;33403;43.608;1.458;2023-06-19T09:27:48;18.30;;;13.10;;
47659;SDS011;33403;43.608;1.458;2023-06-19T09:30:17;13.77;;;12.07;;
47659;SDS011;33403;43.608;1.458;2023-06-19T09:32:43;18.00;;;13.00;;
47659;SDS011;33403;43.608;1.458;2023-06-19T09:35:08;18.40;;;12.63;;
47659;SDS011;33403;43.608;1.458;2023-06-19T09:37:34;19.83;;;13.98;;
47659;SDS011;33403;43.608;1.458;2023-06-19T09:40:03;17.80;;;13.32;;
47659;SDS011;33403;43.608;1.458;2023-06-19T09:42:36;17.13;;;12.50;;
47659;SDS011;33403;43.608;1.458;2023-06-19T09:45:10;16.15;;;13.35;;
47659;SDS011;33403;43.608;1.458;2023-06-19T09:47:46;16.33;;;12.10;;
47659;SDS011;33403;43.608;1.458;2023-06-19T09:50:16;15.23;;;12.95;;
47659;SDS011;33403;43.608;1.458;2023-06-19T09:52:42;15.15;;;13.15;;
47659;SDS011;33403;43.608;1.458;2023-06-19T09:55:10;15.95;;;12.85;;
47659;SDS011;33403;43.608;1.458;2023-06-19T09:57:40;15.40;;;12.68;;
47659;SDS011;33403;43.608;1.458;2023-06-19T10:00:08;16.83;;;12.70;;
47659;SDS011;33403;43.608;1.458;2023-06-19T10:02:37;14.93;;;11.70;;
47659;SDS011;33403;43.608;1.458;2023-06-19T10:05:07;16.52;;;12.30;;
47659;SDS011;33403;43.608;1.458;2023-06-19T10:07:36;14.48;;;11.68;;
47659;SDS011;33403;43.608;1.458;2023-06-19T10:10:05;13.95;;;11.18;;
47659;SDS011;33403;43.608;1.458;2023-06-19T10:12:42;15.18;;;11.48;;
47659;SDS011;33403;43.608;1.458;2023-06-19T10:15:18;15.20;;;11.27;;
47659;SDS011;33403;43.608;1.458;2023-06-19T10:17:52;13.57;;;10.90;;
47659;SDS011;33403;43.608;1.458;2023-06-19T10:25:23;13.43;;;10.45;;
47659;SDS011;33403;43.608;1.458;2023-06-19T10:27:52;12.25;;;10.13;;
47659;SDS011;33403;43.608;1.458;2023-06-19T10:30:18;12.52;;;10.68;;
47659;SDS011;33403;43.608;1.458;2023-06-19T10:32:45;13.60;;;10.73;;
47659;SDS011;33403;43.608;1.458;2023-06-19T10:35:11;12.10;;;10.52;;
47659;SDS011;33403;43.608;1.458;2023-06-19T10:37:38;12.13;;;10.23;;
47659;SDS011;33403;43.608;1.458;2023-06-19T10:40:04;13.43;;;11.20;;
47659;SDS011;33403;43.608;1.458;2023-06-19T10:42:33;12.68;;;10.88;;
47659;SDS011;33403;43.608;1.458;2023-06-19T10:45:02;12.45;;;10.30;;
47659;SDS011;33403;43.608;1.458;2023-06-19T10:47:28;15.23;;;10.50;;
47659;SDS011;33403;43.608;1.458;2023-06-19T10:49:54;13.48;;;10.95;;
47659;SDS011;33403;43.608;1.458;2023-06-19T10:52:20;13.60;;;10.27;;
47659;SDS011;33403;43.608;1.458;2023-06-19T10:54:45;14.50;;;11.32;;
47659;SDS011;33403;43.608;1.458;2023-06-19T10:57:17;14.50;;;10.90;;
47659;SDS011;33403;43.608;1.458;2023-06-19T10:59:43;15.93;;;10.82;;
47659;SDS011;33403;43.608;1.458;2023-06-19T11:02:08;12.43;;;10.15;;
47659;SDS011;33403;43.608;1.458;2023-06-19T11:04:37;16.05;;;10.43;;
47659;SDS011;33403;43.608;1.458;2023-06-19T11:07:04;13.10;;;10.07;;
47659;SDS011;33403;43.608;1.458;2023-06-19T11:09:31;15.10;;;10.27;;
47659;SDS011;33403;43.608;1.458;2023-06-19T11:11:56;12.95;;;9.68;;
47659;SDS011;33403;43.608;1.458;2023-06-19T11:14:28;11.73;;;10.00;;
47659;SDS011;33403;43.608;1.458;2023-06-19T11:16:54;12.60;;;9.77;;
47659;SDS011;33403;43.608;1.458;2023-06-19T11:19:21;14.18;;;9.75;;
47659;SDS011;33403;43.608;1.458;2023-06-19T11:21:51;12.13;;;9.07;;
47659;SDS011;33403;43.608;1.458;2023-06-19T11:24:17;11.13;;;9.20;;
47659;SDS011;33403;43.608;1.458;2023-06-19T11:26:45;13.63;;;9.35;;
47659;SDS011;33403;43.608;1.458;2023-06-19T11:29:16;12.32;;;9.40;;
47659;SDS011;33403;43.608;1.458;2023-06-19T11:31:43;13.93;;;9.73;;
47659;SDS011;33403;43.608;1.458;2023-06-19T11:34:09;12.88;;;9.50;;
47659;SDS011;33403;43.608;1.458;2023-06-19T11:36:37;13.65;;;9.48;;
47659;SDS011;33403;43.608;1.458;2023-06-19T11:39:03;12.23;;;8.90;;
47659;SDS011;33403;43.608;1.458;2023-06-19T11:41:32;12.93;;;9.73;;
47659;SDS011;33403;43.608;1.458;2023-06-19T11:43:58;12.65;;;9.00;;
47659;SDS011;33403;43.608;1.458;2023-06-19T11:46:36;11.85;;;9.27;;
47659;SDS011;33403;43.608;1.458;2023-06-19T11:49:09;14.38;;;9.93;;
47659;SDS011;33403;43.608;1.458;2023-06-19T11:51:38;13.10;;;9.38;;
47659;SDS011;33403;43.608;1.458;2023-06-19T11:54:05;10.32;;;8.75;;
47659;SDS011;33403;43.608;1.458;2023-06-19T11:56:33;13.30;;;9.55;;
47659;SDS011;33403;43.608;1.458;2023-06-19T11:59:00;13.68;;;9.13;;
47659;SDS011;33403;43.608;1.458;2023-06-19T12:01:26;12.73;;;8.98;;
47659;SDS011;33403;43.608;1.458;2023-06-19T12:03:52;10.20;;;8.93;;
47659;SDS011;33403;43.608;1.458;2023-06-19T12:06:18;12.15;;;9.23;;
47659;SDS011;33403;43.608;1.458;2023-06-19T12:08:43;12.65;;;8.90;;
47659;SDS011;33403;43.608;1.458;2023-06-19T12:11:09;14.48;;;9.07;;
47659;SDS011;33403;43.608;1.458;2023-06-19T12:13:35;11.77;;;8.95;;
47659;SDS011;33403;43.608;1.458;2023-06-19T12:16:01;11.30;;;9.40;;
47659;SDS011;33403;43.608;1.458;2023-06-19T12:18:28;11.30;;;8.38;;
47659;SDS011;33403;43.608;1.458;2023-06-19T12:20:54;11.45;;;8.63;;
47659;SDS011;33403;43.608;1.458;2023-06-19T12:23:20;12.90;;;9.13;;
47659;SDS011;33403;43.608;1.458;2023-06-19T12:25:46;11.70;;;9.45;;
47659;SDS011;33403;43.608;1.458;2023-06-19T12:28:12;14.38;;;9.48;;
47659;SDS011;33403;43.608;1.458;2023-06-19T12:30:41;11.38;;;9.07;;
47659;SDS011;33403;43.608;1.458;2023-06-19T12:33:07;13.00;;;8.60;;
47659;SDS011;33403;43.608;1.458;2023-06-19T12:35:33;13.63;;;9.15;;
47659;SDS011;33403;43.608;1.458;2023-06-19T12:37:58;12.32;;;9.82;;
47659;SDS011;33403;43.608;1.458;2023-06-19T12:40:24;12.70;;;10.07;;
47659;SDS011;33403;43.608;1.458;2023-06-19T12:42:50;13.18;;;10.07;;
47659;SDS011;33403;43.608;1.458;2023-06-19T12:45:15;11.88;;;9.50;;
47659;SDS011;33403;43.608;1.458;2023-06-19T12:47:41;13.32;;;10.55;;
47659;SDS011;33403;43.608;1.458;2023-06-19T12:50:07;13.98;;;10.30;;
47659;SDS011;33403;43.608;1.458;2023-06-19T12:52:33;12.77;;;9.77;;
47659;SDS011;33403;43.608;1.458;2023-06-19T12:54:58;13.55;;;9.70;;
47659;SDS011;33403;43.608;1.458;2023-06-19T12:57:26;11.07;;;9.88;;
47659;SDS011;33403;43.608;1.458;2023-06-19T12:59:51;11.35;;;9.73;;
47659;SDS011;33403;43.608;1.458;2023-06-19T13:02:17;13.38;;;10.00;;
47659;SDS011;33403;43.608;1.458;2023-06-19T13:04:43;14.15;;;10.02;;
47659;SDS011;33403;43.608;1.458;2023-06-19T13:07:08;12.73;;;9.80;;
47659;SDS011;33403;43.608;1.458;2023-06-19T13:09:34;12.10;;;10.27;;
47659;SDS011;33403;43.608;1.458;2023-06-19T13:12:01;11.93;;;10.13;;
47659;SDS011;33403;43.608;1.458;2023-06-19T13:14:27;13.48;;;10.00;;
47659;SDS011;33403;43.608;1.458;2023-06-19T13:16:53;10.98;;;9.65;;
47659;SDS011;33403;43.608;1.458;2023-06-19T13:19:18;12.27;;;10.10;;
47659;SDS011;33403;43.608;1.458;2023-06-19T13:21:44;11.32;;;9.60;;
47659;SDS011;33403;43.608;1.458;2023-06-19T13:24:10;13.40;;;8.82;;
47659;SDS011;33403;43.608;1.458;2023-06-19T13:26:36;10.80;;;9.07;;
47659;SDS011;33403;43.608;1.458;2023-06-19T13:29:02;15.10;;;9.23;;
47659;SDS011;33403;43.608;1.458;2023-06-19T13:31:28;11.90;;;8.57;;
47659;SDS011;33403;43.608;1.458;2023-06-19T13:33:53;10.65;;;8.48;;
47659;SDS011;33403;43.608;1.458;2023-06-19T13:36:19;11.80;;;9.27;;
47659;SDS011;33403;43.608;1.458;2023-06-19T13:38:45;10.82;;;8.43;;
47659;SDS011;33403;43.608;1.458;2023-06-19T13:41:11;11.70;;;8.68;;
47659;SDS011;33403;43.608;1.458;2023-06-19T13:43:37;11.35;;;8.93;;
47659;SDS011;33403;43.608;1.458;2023-06-19T13:46:05;10.73;;;8.55;;
47659;SDS011;33403;43.608;1.458;2023-06-19T13:48:31;10.57;;;8.90;;
47659;SDS011;33403;43.608;1.458;2023-06-19T13:50:58;11.25;;;8.45;;
47659;SDS011;33403;43.608;1.458;2023-06-19T13:53:25;9.50;;;8.18;;
47659;SDS011;33403;43.608;1.458;2023-06-19T13:55:53;11.05;;;8.60;;
47659;SDS011;33403;43.608;1.458;2023-06-19T13:58:19;11.13;;;8.48;;
47659;SDS011;33403;43.608;1.458;2023-06-19T14:00:44;10.82;;;8.55;;
47659;SDS011;33403;43.608;1.458;2023-06-19T14:03:10;11.52;;;8.63;;
47659;SDS011;33403;43.608;1.458;2023-06-19T14:05:36;12.23;;;8.18;;
47659;SDS011;33403;43.608;1.458;2023-06-19T14:08:03;9.73;;;8.73;;
47659;SDS011;33403;43.608;1.458;2023-06-19T14:10:29;13.63;;;8.57;;
47659;SDS011;33403;43.608;1.458;2023-06-19T14:12:55;11.77;;;8.45;;
47659;SDS011;33403;43.608;1.458;2023-06-19T14:15:20;11.52;;;8.57;;
47659;SDS011;33403;43.608;1.458;2023-06-19T14:17:46;11.18;;;8.23;;
47659;SDS011;33403;43.608;1.458;2023-06-19T14:20:11;14.43;;;8.80;;
47659;SDS011;33403;43.608;1.458;2023-06-19T14:22:37;11.80;;;8.98;;
47659;SDS011;33403;43.608;1.458;2023-06-19T14:25:03;9.75;;;8.55;;
47659;SDS011;33403;43.608;1.458;2023-06-19T14:27:29;11.38;;;8.93;;
47659;SDS011;33403;43.608;1.458;2023-06-19T14:29:55;11.23;;;9.38;;
47659;SDS011;33403;43.608;1.458;2023-06-19T14:32:21;10.82;;;9.20;;